createdAt,value
2022-08-28T00:01:13.401Z,66.01
2022-08-28T00:04:21.651Z,65.49
2022-08-28T00:07:27.261Z,66.07
2022-08-28T00:10:33.129Z,66.81
2022-08-28T00:13:38.682Z,66.94
2022-08-28T00:16:45.975Z,66.46
2022-08-28T00:19:56.913Z,65.58
2022-08-28T00:23:03.892Z,65.23
2022-08-28T00:26:33.531Z,64.40
2022-08-28T00:29:50.371Z,64.38
2022-08-28T00:33:01.269Z,64.34
2022-08-28T00:36:10.297Z,63.41
2022-08-28T00:39:15.817Z,63.62
2022-08-28T00:42:38.727Z,63.74
2022-08-28T00:45:44.428Z,63.98
2022-08-28T00:48:50.282Z,63.95
2022-08-28T00:52:12.929Z,64.17
2022-08-28T00:55:25.455Z,63.93
2022-08-28T00:58:32.080Z,63.69
2022-08-28T01:01:38.971Z,63.20
2022-08-28T01:04:45.947Z,64.50
2022-08-28T01:07:57.762Z,65.13
2022-08-28T01:11:09.214Z,64.51
2022-08-28T01:14:22.407Z,65.87
2022-08-28T01:17:37.298Z,66.98
2022-08-28T01:20:59.686Z,66.66
2022-08-28T01:24:15.121Z,66.70
2022-08-28T01:27:21.865Z,66.78
2022-08-28T01:30:36.393Z,67.26
2022-08-28T01:33:44.396Z,68.09
2022-08-28T01:36:50.600Z,68.21
2022-08-28T01:40:02.071Z,67.85
2022-08-28T01:43:14.876Z,67.66
2022-08-28T01:46:21.215Z,67.74
2022-08-28T01:49:29.642Z,67.71
2022-08-28T01:52:36.674Z,67.40
2022-08-28T01:55:46.345Z,67.72
2022-08-28T01:58:52.710Z,67.86
2022-08-28T02:01:58.586Z,67.19
2022-08-28T02:05:04.205Z,66.27
2022-08-28T02:08:13.741Z,65.75
2022-08-28T02:11:22.769Z,66.73
2022-08-28T02:14:31.316Z,67.96
2022-08-28T02:17:37.209Z,68.88
2022-08-28T02:20:45.273Z,69.81
2022-08-28T02:23:53.264Z,69.22
2022-08-28T02:27:02.534Z,68.21
2022-08-28T02:30:16.421Z,68.52
2022-08-28T02:33:26.298Z,67.89
2022-08-28T02:36:33.955Z,68.40
2022-08-28T02:39:39.537Z,68.25
2022-08-28T02:42:47.912Z,68.46
2022-08-28T02:45:53.639Z,68.47
2022-08-28T02:48:59.337Z,68.83
2022-08-28T02:52:08.829Z,68.92
2022-08-28T02:55:19.564Z,69.06
2022-08-28T02:58:30.160Z,69.40
2022-08-28T03:01:36.394Z,69.45
2022-08-28T03:04:42.082Z,69.06
2022-08-28T03:07:48.054Z,69.66
2022-08-28T03:10:54.429Z,69.35
2022-08-28T03:14:03.658Z,69.67
2022-08-28T03:17:10.436Z,70.62
2022-08-28T03:20:19.258Z,70.26
2022-08-28T03:23:38.723Z,70.51
2022-08-28T03:26:44.407Z,69.79
2022-08-28T03:29:52.573Z,70.02
2022-08-28T03:32:58.308Z,70.20
2022-08-28T03:36:04.767Z,70.02
2022-08-28T03:39:10.525Z,69.83
2022-08-28T03:42:16.035Z,69.83
2022-08-28T03:45:31.573Z,72.41
2022-08-28T03:48:43.505Z,73.06
2022-08-28T03:51:50.623Z,73.10
2022-08-28T03:54:56.181Z,74.32
2022-08-28T03:58:02.331Z,74.99
2022-08-28T04:01:20.575Z,75.84
2022-08-28T04:04:26.177Z,76.85
2022-08-28T04:07:31.677Z,76.22
2022-08-28T04:10:41.386Z,75.33
2022-08-28T04:13:47.036Z,74.69
2022-08-28T04:16:57.585Z,75.05
2022-08-28T04:20:16.891Z,74.55
2022-08-28T04:23:25.545Z,74.13
2022-08-28T04:26:36.655Z,73.64
2022-08-28T04:29:42.179Z,74.55
2022-08-28T04:32:50.788Z,74.34
2022-08-28T04:35:57.443Z,74.33
2022-08-28T04:39:05.501Z,74.03
2022-08-28T04:42:13.364Z,73.82
2022-08-28T04:45:19.129Z,73.59
2022-08-28T04:48:27.817Z,75.01
2022-08-28T04:51:36.931Z,74.70
2022-08-28T04:54:45.769Z,75.44
2022-08-28T04:57:51.458Z,75.37
2022-08-28T05:00:58.267Z,74.71
2022-08-28T05:04:07.323Z,72.66
2022-08-28T05:07:12.937Z,69.91
2022-08-28T05:10:34.739Z,67.55
2022-08-28T05:13:40.703Z,65.57
2022-08-28T05:16:50.787Z,64.55
2022-08-28T05:20:09.787Z,65.30
2022-08-28T05:23:25.561Z,65.84
2022-08-28T05:26:31.965Z,65.00
2022-08-28T05:29:38.481Z,63.27
2022-08-28T05:32:46.189Z,60.92
2022-08-28T05:35:54.424Z,57.73
2022-08-28T05:39:01.709Z,54.37
2022-08-28T05:42:07.807Z,51.77
2022-08-28T05:45:14.090Z,50.99
2022-08-28T05:48:19.588Z,48.12
2022-08-28T05:51:29.354Z,46.57
2022-08-28T05:54:34.925Z,45.63
2022-08-28T05:57:40.683Z,45.88
2022-08-28T06:00:58.655Z,49.23
2022-08-28T06:04:08.859Z,50.40
2022-08-28T06:07:17.071Z,48.83
2022-08-28T06:10:22.639Z,48.58
2022-08-28T06:13:28.519Z,47.10
2022-08-28T06:16:35.869Z,45.24
2022-08-28T06:19:41.878Z,44.99
2022-08-28T06:22:53.641Z,46.12
2022-08-28T06:26:09.938Z,45.64
2022-08-28T06:29:21.066Z,44.85
2022-08-28T06:32:27.663Z,44.47
2022-08-28T06:35:38.721Z,43.27
2022-08-28T06:38:46.989Z,43.10
2022-08-28T06:41:53.955Z,44.48
2022-08-28T06:45:00.519Z,44.51
2022-08-28T06:48:06.918Z,44.54
2022-08-28T06:51:19.281Z,44.74
2022-08-28T06:54:31.315Z,44.22
2022-08-28T06:57:37.212Z,43.50
2022-08-28T07:00:58.165Z,42.59
2022-08-28T07:04:16.838Z,41.65
2022-08-28T07:07:31.727Z,40.33
2022-08-28T07:10:40.895Z,40.53
2022-08-28T07:13:48.416Z,38.40
2022-08-28T07:16:54.057Z,38.63
2022-08-28T07:20:13.808Z,39.66
2022-08-28T07:23:19.332Z,38.61
2022-08-28T07:26:29.284Z,38.72
2022-08-28T07:29:36.157Z,39.41
2022-08-28T07:32:41.731Z,40.75
2022-08-28T07:35:47.844Z,39.82
2022-08-28T07:38:53.557Z,38.51
2022-08-28T07:42:02.042Z,37.64
2022-08-28T07:45:06.760Z,39.22
2022-08-28T07:48:12.610Z,39.06
2022-08-28T07:51:18.560Z,39.49
2022-08-28T07:54:24.456Z,39.98
2022-08-28T07:57:32.597Z,39.58
2022-08-28T08:00:38.202Z,40.51
2022-08-28T08:03:43.726Z,39.90
2022-08-28T08:06:52.297Z,39.73
2022-08-28T08:10:01.280Z,39.56
2022-08-28T08:13:11.484Z,37.89
2022-08-28T08:16:21.994Z,38.72
2022-08-28T08:19:29.488Z,38.05
2022-08-28T08:22:35.102Z,38.91
2022-08-28T08:25:40.676Z,38.42
2022-08-28T08:28:51.292Z,38.04
2022-08-28T08:32:05.811Z,37.45
2022-08-28T08:35:13.088Z,39.79
2022-08-28T08:38:18.604Z,39.94
2022-08-28T08:41:31.668Z,40.82
2022-08-28T08:44:47.148Z,40.03
2022-08-28T08:47:58.438Z,39.66
2022-08-28T08:51:16.902Z,40.07
2022-08-28T08:54:24.925Z,40.68
2022-08-28T08:57:34.878Z,40.75
2022-08-28T09:01:01.745Z,39.69
2022-08-28T09:04:31.430Z,39.45
2022-08-28T09:07:46.807Z,40.44
2022-08-28T09:11:14.102Z,39.24
2022-08-28T09:14:33.226Z,39.51
2022-08-28T09:17:50.763Z,40.04
2022-08-28T09:20:59.389Z,39.31
2022-08-28T09:24:16.104Z,39.58
2022-08-28T09:27:31.420Z,38.92
2022-08-28T09:30:38.855Z,39.67
2022-08-28T09:33:51.446Z,40.52
2022-08-28T09:37:17.940Z,41.71
2022-08-28T09:40:48.866Z,43.00
2022-08-28T09:43:52.176Z,43.82
2022-08-28T09:46:57.992Z,45.37
2022-08-28T09:50:35.662Z,45.62
2022-08-28T09:54:02.470Z,47.10
2022-08-28T09:57:08.323Z,44.41
2022-08-28T10:00:15.803Z,42.49
2022-08-28T10:03:29.562Z,43.27
2022-08-28T10:06:40.579Z,43.35
2022-08-28T10:10:19.125Z,40.54
2022-08-28T10:13:37.972Z,39.44
2022-08-28T10:16:58.680Z,40.20
2022-08-28T10:20:18.749Z,41.80
2022-08-28T10:23:46.217Z,41.66
2022-08-28T10:27:04.909Z,41.96
2022-08-28T10:30:18.354Z,42.09
2022-08-28T10:33:57.261Z,40.63
2022-08-28T10:37:17.105Z,41.16
2022-08-28T10:40:36.573Z,41.89
2022-08-28T10:43:51.330Z,42.66
2022-08-28T10:47:01.669Z,42.70
2022-08-28T10:50:20.515Z,42.30
2022-08-28T10:53:35.831Z,43.02
2022-08-28T10:56:56.840Z,43.82
2022-08-28T11:00:13.264Z,42.66
2022-08-28T11:03:41.082Z,42.78
2022-08-28T11:06:56.005Z,43.61
2022-08-28T11:10:44.831Z,43.53
2022-08-28T11:14:01.145Z,42.01
2022-08-28T11:17:14.311Z,38.81
2022-08-28T11:20:25.509Z,39.01
2022-08-28T11:23:45.967Z,37.14
2022-08-28T11:27:19.602Z,37.50
2022-08-28T11:30:38.113Z,38.54
2022-08-28T11:33:48.655Z,37.70
2022-08-28T11:37:06.059Z,37.45
2022-08-28T11:40:23.220Z,39.45
2022-08-28T11:43:42.851Z,40.21
2022-08-28T11:46:55.539Z,41.59
2022-08-28T11:50:17.369Z,42.25
2022-08-28T11:53:52.965Z,44.15
2022-08-28T11:57:17.429Z,44.98
2022-08-28T12:00:44.213Z,45.11
2022-08-28T12:04:08.055Z,45.88
2022-08-28T12:07:36.992Z,45.78
2022-08-28T12:11:00.755Z,46.37
2022-08-28T12:14:06.399Z,46.10
2022-08-28T12:17:31.169Z,45.97
2022-08-28T12:21:09.774Z,47.00
2022-08-28T12:24:29.001Z,46.99
2022-08-28T12:27:43.236Z,47.90
2022-08-28T12:31:19.684Z,49.03
2022-08-28T12:34:44.391Z,51.17
2022-08-28T12:38:08.087Z,53.16
2022-08-28T12:41:21.266Z,56.20
2022-08-28T12:44:36.189Z,67.23
2022-08-28T12:47:47.337Z,66.95
2022-08-28T12:51:03.233Z,89.54
2022-08-28T12:54:19.564Z,89.09
2022-08-28T12:57:28.837Z,81.83
2022-08-28T13:00:38.773Z,79.81
2022-08-28T13:03:54.061Z,78.63
2022-08-28T13:07:11.005Z,78.85
2022-08-28T13:10:27.841Z,77.47
2022-08-28T13:13:40.929Z,76.04
2022-08-28T13:16:49.944Z,74.16
2022-08-28T13:20:13.584Z,71.74
2022-08-28T13:23:31.925Z,71.04
2022-08-28T13:26:41.129Z,72.78
2022-08-28T13:30:01.114Z,73.51
2022-08-28T13:33:24.950Z,75.18
2022-08-28T13:36:30.728Z,74.02
2022-08-28T13:39:38.758Z,72.40
2022-08-28T13:42:55.142Z,72.83
2022-08-28T13:46:00.902Z,73.24
2022-08-28T13:49:07.061Z,74.15
2022-08-28T13:52:14.433Z,74.74
2022-08-28T13:55:20.018Z,75.10
2022-08-28T13:58:38.854Z,75.47
2022-08-28T14:01:57.093Z,76.15
2022-08-28T14:05:12.748Z,75.75
2022-08-28T14:08:20.347Z,75.96
2022-08-28T14:11:26.536Z,76.13
2022-08-28T14:14:35.733Z,76.27
2022-08-28T14:17:41.665Z,75.12
2022-08-28T14:20:47.347Z,75.02
2022-08-28T14:23:55.078Z,74.66
2022-08-28T14:27:00.736Z,74.83
2022-08-28T14:30:12.062Z,75.14
2022-08-28T14:33:20.826Z,75.07
2022-08-28T14:36:30.416Z,75.25
2022-08-28T14:39:36.139Z,74.86
2022-08-28T14:42:49.427Z,75.84
2022-08-28T14:45:57.579Z,76.28
2022-08-28T14:49:07.548Z,76.20
2022-08-28T14:52:13.299Z,76.06
2022-08-28T14:55:19.341Z,74.31
2022-08-28T14:58:31.232Z,76.26
2022-08-28T15:01:43.104Z,77.38
2022-08-28T15:04:48.691Z,78.22
2022-08-28T15:07:54.263Z,78.46
2022-08-28T15:11:00.321Z,78.37
2022-08-28T15:14:16.408Z,77.79
2022-08-28T15:17:33.985Z,78.64
2022-08-28T15:20:50.122Z,77.84
2022-08-28T15:23:59.999Z,77.63
2022-08-28T15:27:12.501Z,76.82
2022-08-28T15:30:20.089Z,76.73
2022-08-28T15:33:28.364Z,77.46
2022-08-28T15:36:33.942Z,77.58
2022-08-28T15:39:53.489Z,77.81
2022-08-28T15:42:59.253Z,78.05
2022-08-28T15:46:13.750Z,78.69
2022-08-28T15:49:24.147Z,78.81
2022-08-28T15:52:29.814Z,79.29
2022-08-28T15:55:36.542Z,78.93
2022-08-28T15:58:42.722Z,79.07
2022-08-28T16:01:49.457Z,79.77
2022-08-28T16:05:04.446Z,79.16
2022-08-28T16:08:17.017Z,78.92
2022-08-28T16:11:25.908Z,79.41
2022-08-28T16:14:34.307Z,79.41
2022-08-28T16:17:47.383Z,78.91
2022-08-28T16:21:01.527Z,79.08
2022-08-28T16:24:10.899Z,79.58
2022-08-28T16:27:19.290Z,79.03
2022-08-28T16:30:32.648Z,78.29
2022-08-28T16:33:40.673Z,77.85
2022-08-28T16:36:57.241Z,78.28
2022-08-28T16:40:22.066Z,77.80
2022-08-28T16:43:29.113Z,77.05
2022-08-28T16:46:34.815Z,77.16
2022-08-28T16:49:41.793Z,77.20
2022-08-28T16:52:55.714Z,77.27
2022-08-28T16:56:10.174Z,77.55
2022-08-28T16:59:26.698Z,77.59
2022-08-28T17:02:34.123Z,77.63
2022-08-28T17:05:47.198Z,77.85
2022-08-28T17:08:57.292Z,77.58
2022-08-28T17:12:04.945Z,78.08
2022-08-28T17:15:12.946Z,78.11
2022-08-28T17:18:21.838Z,78.72
2022-08-28T17:21:40.379Z,78.00
2022-08-28T17:24:49.742Z,77.90
2022-08-28T17:27:59.150Z,78.43
2022-08-28T17:31:14.313Z,79.37
2022-08-28T17:34:21.470Z,79.38
2022-08-28T17:37:29.712Z,79.03
2022-08-28T17:40:39.558Z,78.52
2022-08-28T17:43:45.339Z,78.54
2022-08-28T17:46:57.343Z,78.56
2022-08-28T17:50:06.016Z,77.72
2022-08-28T17:53:27.804Z,77.92
2022-08-28T17:56:36.337Z,78.08
2022-08-28T17:59:41.951Z,78.53
2022-08-28T18:02:48.490Z,79.05
2022-08-28T18:05:54.382Z,78.79
2022-08-28T18:09:00.892Z,79.31
2022-08-28T18:12:12.282Z,78.58
2022-08-28T18:15:18.954Z,78.38
2022-08-28T18:18:31.579Z,78.98
2022-08-28T18:21:49.510Z,78.99
2022-08-28T18:24:57.672Z,78.85
2022-08-28T18:28:07.536Z,78.33
2022-08-28T18:31:13.707Z,78.35
2022-08-28T18:34:19.482Z,78.40
2022-08-28T18:37:25.654Z,78.11
2022-08-28T18:40:39.485Z,77.83
2022-08-28T18:43:47.710Z,77.71
2022-08-28T18:46:53.583Z,78.54
2022-08-28T18:49:59.219Z,78.27
2022-08-28T18:53:07.846Z,78.20
2022-08-28T18:56:14.067Z,78.05
2022-08-28T18:59:22.440Z,79.17
2022-08-28T19:02:28.393Z,78.82
2022-08-28T19:05:34.188Z,78.83
2022-08-28T19:08:41.668Z,78.83
2022-08-28T19:11:47.233Z,78.69
2022-08-28T19:15:00.757Z,78.08
2022-08-28T19:18:08.269Z,78.31
2022-08-28T19:21:19.932Z,78.51
2022-08-28T19:24:26.799Z,78.34
2022-08-28T19:27:32.480Z,78.37
2022-08-28T19:30:40.781Z,77.92
2022-08-28T19:33:46.613Z,78.26
2022-08-28T19:36:52.409Z,78.07
2022-08-28T19:39:58.023Z,78.03
2022-08-28T19:43:03.667Z,78.50
2022-08-28T19:46:20.081Z,78.21
2022-08-28T19:49:26.170Z,78.03
2022-08-28T19:52:31.775Z,77.75
2022-08-28T19:55:39.990Z,77.89
2022-08-28T19:58:45.598Z,78.34
2022-08-28T20:01:53.939Z,77.63
2022-08-28T20:04:59.697Z,78.24
2022-08-28T20:08:05.939Z,78.32
2022-08-28T20:11:11.729Z,78.27
2022-08-28T20:14:19.090Z,78.21
2022-08-28T20:17:27.457Z,78.22
2022-08-28T20:20:33.122Z,78.21
2022-08-28T20:23:38.679Z,78.17
2022-08-28T20:26:47.348Z,78.35
2022-08-28T20:29:52.915Z,78.54
2022-08-28T20:33:03.131Z,78.69
2022-08-28T20:36:11.589Z,78.64
2022-08-28T20:39:26.667Z,78.54
2022-08-28T20:42:36.364Z,78.77
2022-08-28T20:45:41.961Z,78.66
2022-08-28T20:48:50.219Z,78.99
2022-08-28T20:51:57.072Z,79.42
2022-08-28T20:55:02.656Z,79.28
2022-08-28T20:58:08.231Z,79.08
2022-08-28T21:01:16.115Z,79.09
2022-08-28T21:04:25.313Z,78.49
2022-08-28T21:07:33.644Z,78.72
2022-08-28T21:10:39.846Z,78.56
2022-08-28T21:13:45.777Z,78.63
2022-08-28T21:16:51.580Z,78.30
2022-08-28T21:20:00.199Z,78.63
2022-08-28T21:23:07.882Z,78.92
2022-08-28T21:26:14.642Z,79.18
2022-08-28T21:29:24.180Z,78.90
2022-08-28T21:32:34.166Z,79.21
2022-08-28T21:35:43.479Z,79.06
2022-08-28T21:38:49.266Z,79.84
2022-08-28T21:41:57.502Z,79.85
2022-08-28T21:45:06.243Z,80.10
2022-08-28T21:48:14.132Z,80.20
2022-08-28T21:51:23.470Z,79.98
2022-08-28T21:54:30.352Z,79.94
2022-08-28T21:57:36.343Z,79.48
2022-08-28T22:00:42.007Z,79.42
2022-08-28T22:03:47.911Z,79.80
2022-08-28T22:06:56.146Z,79.44
2022-08-28T22:10:01.705Z,80.33
2022-08-28T22:13:07.520Z,79.85
2022-08-28T22:16:13.716Z,79.97
2022-08-28T22:19:19.315Z,79.85
2022-08-28T22:22:39.938Z,80.34
2022-08-28T22:25:46.686Z,80.49
2022-08-28T22:28:52.580Z,80.94
2022-08-28T22:31:58.131Z,80.64
2022-08-28T22:35:03.690Z,80.71
2022-08-28T22:38:12.739Z,80.48
2022-08-28T22:41:18.438Z,80.59
2022-08-28T22:44:24.032Z,80.04
2022-08-28T22:47:32.123Z,80.20
2022-08-28T22:50:37.628Z,80.11
2022-08-28T22:53:46.969Z,79.18
2022-08-28T22:56:52.672Z,79.70
2022-08-28T23:00:01.622Z,79.62
2022-08-28T23:03:08.308Z,79.30
2022-08-28T23:06:14.387Z,79.36
2022-08-28T23:09:23.153Z,79.44
2022-08-28T23:12:28.935Z,79.62
2022-08-28T23:15:35.022Z,79.33
2022-08-28T23:19:06.672Z,78.81
2022-08-28T23:22:06.554Z,78.64
2022-08-28T23:25:19.143Z,78.38
2022-08-28T23:28:25.371Z,78.64
2022-08-28T23:31:31.095Z,78.92
2022-08-28T23:34:39.030Z,78.48
2022-08-28T23:37:48.671Z,78.19
2022-08-28T23:40:59.949Z,78.57
2022-08-28T23:44:09.172Z,78.74
2022-08-28T23:47:14.965Z,78.75
2022-08-28T23:50:25.667Z,78.25
2022-08-28T23:53:31.303Z,77.93
2022-08-28T23:56:42.359Z,78.21
2022-08-28T23:59:48.109Z,78.21
